Time;durP1;ratioP1;P1;durP2;ratioP2;P2;SDS_P1;SDS_P2;PMS_P1;PMS_P2;Temp;Humidity;BMP_temperature;BMP_pressure;BME280_temperature;BME280_humidity;BME280_pressure;Samples;Min_cycle;Max_cycle;Signal;HPM_P1;HPM_P2
2023/09/19 00:00:07;;;;;;;1.80;1.20;;;18.50;1.00;;;;;;5055174;28;20479;-92
2023/09/19 00:02:57;;;;;;;1.80;1.40;;;17.10;1.00;;;;;;5043749;28;20412;-91
2023/09/19 00:09:04;;;;;;;2.28;1.20;;;17.00;1.00;;;;;;5036289;28;20372;-90
2023/09/19 00:11:53;;;;;;;2.63;1.20;;;17.90;1.00;;;;;;5045804;28;20519;-90
2023/09/19 00:14:25;;;;;;;2.72;1.38;;;17.80;1.00;;;;;;5036205;28;20387;-89
2023/09/19 00:17:30;;;;;;;2.70;1.20;;;15.70;1.00;;;;;;5036029;28;20392;-90
2023/09/19 00:23:51;;;;;;;2.05;1.17;;;17.50;1.00;;;;;;5024978;28;20393;-89
2023/09/19 00:26:20;;;;;;;1.38;1.10;;;16.10;1.00;;;;;;5046458;28;20415;-88
2023/09/19 00:29:20;;;;;;;1.70;1.00;;;20.10;1.00;;;;;;5048056;28;20432;-89
2023/09/19 00:46:28;;;;;;;1.23;0.80;;;17.50;1.00;;;;;;5125296;22;20433;-91
2023/09/19 00:49:14;;;;;;;1.30;0.90;;;19.20;1.00;;;;;;5140070;23;20442;-91
2023/09/19 00:51:45;;;;;;;2.83;0.80;;;17.40;1.00;;;;;;5035679;28;20404;-92
2023/09/19 00:54:29;;;;;;;2.30;1.20;;;17.50;1.00;;;;;;5035836;28;20401;-92
2023/09/19 00:56:56;;;;;;;1.50;0.60;;;17.90;1.00;;;;;;5036422;28;20392;-91
2023/09/19 01:16:33;;;;;;;1.40;0.70;;;17.80;1.00;;;;;;5036742;28;20452;-88
2023/09/19 01:19:37;;;;;;;2.00;0.60;;;17.70;1.00;;;;;;5036704;28;20459;-89
2023/09/19 01:22:37;;;;;;;1.70;0.70;;;17.80;1.00;;;;;;5038940;28;20414;-90
2023/09/19 01:25:43;;;;;;;1.20;0.60;;;17.90;1.00;;;;;;5019661;28;20397;-91
2023/09/19 01:28:36;;;;;;;0.80;0.60;;;17.70;1.00;;;;;;5019099;28;20425;-90
2023/09/19 01:31:09;;;;;;;2.30;0.60;;;18.10;1.00;;;;;;5013265;28;20423;-91
2023/09/19 01:33:59;;;;;;;1.20;0.80;;;17.70;1.00;;;;;;5000324;28;20398;-91
2023/09/19 01:36:29;;;;;;;1.63;0.80;;;17.70;1.00;;;;;;5014061;28;20377;-90
2023/09/19 01:39:18;;;;;;;1.48;0.68;;;17.70;1.00;;;;;;5016240;28;20471;-90
2023/09/19 01:42:14;;;;;;;1.30;0.90;;;17.70;1.00;;;;;;5015042;28;20396;-91
2023/09/19 01:45:21;;;;;;;0.98;0.60;;;18.80;1.00;;;;;;4999028;28;20770;-90
2023/09/19 01:48:13;;;;;;;1.10;0.52;;;18.80;1.00;;;;;;4999119;28;20390;-87
2023/09/19 01:51:02;;;;;;;2.60;0.65;;;19.00;1.00;;;;;;5002515;28;20412;-90
2023/09/19 01:53:33;;;;;;;1.40;0.63;;;17.90;1.00;;;;;;4983110;28;20463;-86
2023/09/19 01:56:09;;;;;;;1.95;0.50;;;17.90;1.00;;;;;;4994195;28;20437;-87
2023/09/19 01:59:10;;;;;;;2.20;0.98;;;18.60;1.00;;;;;;5002533;28;20388;-89
2023/09/19 02:02:18;;;;;;;1.70;0.60;;;18.50;1.00;;;;;;4992365;28;20394;-89
2023/09/19 02:04:49;;;;;;;1.92;0.90;;;16.60;1.00;;;;;;4996049;28;20405;-90
2023/09/19 02:07:27;;;;;;;1.37;0.80;;;19.00;1.00;;;;;;4994283;28;20398;-88
2023/09/19 02:10:03;;;;;;;2.60;0.73;;;17.20;1.00;;;;;;4996152;28;20398;-90
2023/09/19 02:15:59;;;;;;;1.33;0.70;;;18.50;1.00;;;;;;5003030;28;20390;-89
2023/09/19 02:18:30;;;;;;;0.95;0.60;;;18.80;1.00;;;;;;4999348;28;20397;-88
2023/09/19 02:21:04;;;;;;;1.30;0.80;;;19.90;1.00;;;;;;5027161;28;20387;-90
2023/09/19 02:23:35;;;;;;;2.50;0.77;;;19.30;1.00;;;;;;5007306;28;20446;-89
2023/09/19 02:26:07;;;;;;;1.48;0.80;;;16.40;1.00;;;;;;4993558;28;20430;-88
2023/09/19 02:28:49;;;;;;;1.25;1.00;;;17.40;1.00;;;;;;5003089;28;20402;-88
2023/09/19 02:31:16;;;;;;;1.55;0.70;;;17.00;1.00;;;;;;5033008;23;20566;-86
2023/09/19 02:33:42;;;;;;;1.20;0.70;;;16.90;1.00;;;;;;5012941;28;20872;-86
2023/09/19 02:36:08;;;;;;;2.03;1.02;;;16.90;1.00;;;;;;5011265;28;20392;-86
2023/09/19 02:38:34;;;;;;;1.60;0.90;;;16.90;1.00;;;;;;5012615;28;20417;-86
2023/09/19 02:40:59;;;;;;;0.98;0.70;;;17.00;1.00;;;;;;5000660;28;20419;-87
2023/09/19 02:43:25;;;;;;;1.77;1.10;;;17.10;1.00;;;;;;4991564;28;20411;-86
2023/09/19 02:45:53;;;;;;;2.10;0.80;;;17.20;1.00;;;;;;4991867;28;20508;-87
2023/09/19 02:48:19;;;;;;;0.77;0.70;;;17.20;1.00;;;;;;4992355;28;20387;-87
2023/09/19 02:50:45;;;;;;;1.70;0.70;;;17.10;1.00;;;;;;4991295;28;20458;-86
2023/09/19 02:53:13;;;;;;;1.10;0.88;;;17.00;1.00;;;;;;4991956;28;20822;-86
2023/09/19 02:55:40;;;;;;;1.05;0.73;;;16.80;1.00;;;;;;4992754;28;20446;-86
2023/09/19 02:58:07;;;;;;;1.30;0.80;;;16.70;1.00;;;;;;4991825;28;20409;-86
2023/09/19 03:00:35;;;;;;;1.92;0.95;;;16.60;1.00;;;;;;4990661;28;20406;-86
2023/09/19 03:03:02;;;;;;;1.23;0.88;;;16.50;1.00;;;;;;4991693;28;20485;-87
2023/09/19 03:05:30;;;;;;;4.28;1.10;;;16.50;1.00;;;;;;4991777;28;20748;-86
2023/09/19 03:07:56;;;;;;;2.80;1.00;;;16.50;1.00;;;;;;4993896;28;20406;-87
2023/09/19 03:10:24;;;;;;;2.40;0.90;;;16.70;1.00;;;;;;5011716;28;20406;-87
2023/09/19 03:12:50;;;;;;;0.88;0.70;;;17.10;1.00;;;;;;5014263;28;20406;-87
2023/09/19 03:15:16;;;;;;;1.87;0.70;;;16.70;1.00;;;;;;4998405;28;20422;-88
2023/09/19 03:17:47;;;;;;;0.95;0.70;;;16.70;1.00;;;;;;4991489;28;20410;-87
2023/09/19 03:20:17;;;;;;;3.00;1.08;;;16.70;1.00;;;;;;4991479;28;20402;-86
2023/09/19 03:22:45;;;;;;;1.10;0.70;;;16.70;1.00;;;;;;5012109;28;20390;-88
2023/09/19 03:25:11;;;;;;;2.33;0.80;;;16.70;1.00;;;;;;5015085;28;20405;-87
2023/09/19 03:27:41;;;;;;;3.13;0.90;;;16.80;1.00;;;;;;5015863;28;20437;-87
2023/09/19 03:30:13;;;;;;;0.75;0.60;;;16.80;1.00;;;;;;5007140;28;20406;-88
2023/09/19 03:32:45;;;;;;;1.00;0.80;;;16.90;1.00;;;;;;5001619;28;20410;-86
2023/09/19 03:35:11;;;;;;;2.10;0.80;;;17.00;1.00;;;;;;5017948;28;20385;-84
2023/09/19 03:37:36;;;;;;;1.70;0.80;;;16.90;1.00;;;;;;5000201;28;20419;-88
2023/09/19 03:40:04;;;;;;;1.67;0.60;;;17.00;1.00;;;;;;4991131;28;20398;-88
2023/09/19 03:42:35;;;;;;;1.50;0.90;;;17.00;1.00;;;;;;4991386;28;20485;-87
2023/09/19 03:45:05;;;;;;;2.33;1.10;;;17.20;1.00;;;;;;4991079;28;20406;-89
2023/09/19 03:47:31;;;;;;;1.45;0.82;;;17.10;1.00;;;;;;4992486;28;20417;-87
2023/09/19 03:49:56;;;;;;;1.17;0.85;;;18.80;1.00;;;;;;4991626;28;20425;-87
2023/09/19 03:52:22;;;;;;;2.93;1.50;;;15.90;1.00;;;;;;4992386;28;20426;-87
2023/09/19 03:54:47;;;;;;;0.90;0.70;;;17.20;1.00;;;;;;4991360;28;20406;-89
2023/09/19 03:57:15;;;;;;;2.30;0.90;;;17.20;1.00;;;;;;4992789;28;20401;-87
2023/09/19 03:59:42;;;;;;;1.00;0.80;;;17.20;1.00;;;;;;4991654;28;20906;-87
2023/09/19 04:02:12;;;;;;;1.00;0.80;;;16.90;1.00;;;;;;4990587;28;20802;-86
2023/09/19 04:04:37;;;;;;;1.60;0.95;;;16.90;1.00;;;;;;4991293;28;20399;-88
2023/09/19 04:07:03;;;;;;;2.70;0.80;;;17.20;1.00;;;;;;4991380;28;20410;-88
2023/09/19 04:09:28;;;;;;;1.90;0.90;;;17.20;1.00;;;;;;4991098;28;20406;-88
2023/09/19 04:11:54;;;;;;;1.60;1.00;;;17.10;1.00;;;;;;4990308;28;20431;-87
2023/09/19 04:14:19;;;;;;;2.10;1.10;;;17.10;1.00;;;;;;4991368;28;20402;-87
2023/09/19 04:16:45;;;;;;;2.00;1.10;;;16.00;1.00;;;;;;4990995;28;20402;-88
2023/09/19 04:19:11;;;;;;;2.30;0.90;;;17.20;1.00;;;;;;4991439;28;20898;-86
2023/09/19 04:21:37;;;;;;;1.70;1.00;;;17.20;1.00;;;;;;4994359;28;20402;-88
2023/09/19 04:24:02;;;;;;;1.38;0.90;;;17.20;1.00;;;;;;4991712;28;20497;-86
2023/09/19 04:26:28;;;;;;;2.00;1.15;;;17.30;1.00;;;;;;4992265;28;20410;-88
2023/09/19 04:28:53;;;;;;;1.90;1.10;;;17.10;1.00;;;;;;4993181;28;20398;-88
2023/09/19 04:31:20;;;;;;;2.00;1.00;;;17.30;1.00;;;;;;4991921;28;20791;-89
2023/09/19 04:33:46;;;;;;;1.77;1.00;;;16.90;1.00;;;;;;4992669;28;20423;-89
2023/09/19 04:36:13;;;;;;;3.67;1.20;;;16.90;1.00;;;;;;4990602;28;20394;-88
2023/09/19 04:38:38;;;;;;;3.22;1.10;;;17.20;1.00;;;;;;4992749;28;20453;-87
2023/09/19 04:41:04;;;;;;;1.52;0.95;;;17.40;1.00;;;;;;4990280;28;20910;-86
2023/09/19 04:43:32;;;;;;;1.90;1.00;;;16.30;1.00;;;;;;4990605;28;20794;-88
2023/09/19 04:46:00;;;;;;;1.67;1.20;;;16.20;1.00;;;;;;4990441;28;20401;-87
2023/09/19 04:48:25;;;;;;;2.50;1.00;;;16.20;1.00;;;;;;4992123;28;20493;-87
2023/09/19 04:50:51;;;;;;;2.00;1.10;;;16.80;1.00;;;;;;4990244;28;20496;-86
2023/09/19 04:53:21;;;;;;;1.25;0.85;;;16.50;1.00;;;;;;4993460;28;20410;-88
2023/09/19 04:55:52;;;;;;;1.80;0.90;;;17.60;1.00;;;;;;4995957;28;20434;-86
2023/09/19 04:58:20;;;;;;;0.90;0.80;;;17.10;1.00;;;;;;4979949;28;20488;-88
2023/09/19 05:00:45;;;;;;;2.70;1.05;;;17.00;1.00;;;;;;4996217;28;20390;-87
2023/09/19 05:03:11;;;;;;;1.30;1.00;;;17.30;1.00;;;;;;4996165;28;20429;-88
2023/09/19 05:05:41;;;;;;;1.30;1.00;;;18.10;1.00;;;;;;4995171;28;20402;-88
2023/09/19 05:08:08;;;;;;;1.63;0.80;;;18.20;1.00;;;;;;4998837;28;20453;-87
2023/09/19 05:10:37;;;;;;;1.30;1.10;;;17.50;1.00;;;;;;5003050;28;20420;-87
2023/09/19 05:13:04;;;;;;;2.70;0.90;;;19.20;1.00;;;;;;5007234;28;20438;-87
2023/09/19 05:15:31;;;;;;;2.00;0.95;;;17.50;1.00;;;;;;5012092;28;20398;-86
2023/09/19 05:17:56;;;;;;;1.33;0.93;;;19.20;1.00;;;;;;5000240;28;20835;-87
2023/09/19 05:20:40;;;;;;;2.77;1.00;;;18.80;1.00;;;;;;5004994;28;20392;-87
2023/09/19 05:23:12;;;;;;;2.20;1.00;;;17.50;1.00;;;;;;5015732;28;20405;-86
2023/09/19 05:25:39;;;;;;;2.08;1.48;;;17.40;1.00;;;;;;4997962;28;20403;-87
2023/09/19 05:28:10;;;;;;;1.30;0.88;;;17.40;1.00;;;;;;4996275;28;20394;-88
2023/09/19 05:30:36;;;;;;;1.40;1.30;;;17.40;1.00;;;;;;4992423;28;20922;-87
2023/09/19 05:33:04;;;;;;;1.50;1.00;;;17.40;1.00;;;;;;4992441;28;20845;-87
2023/09/19 05:35:30;;;;;;;1.23;1.02;;;17.40;1.00;;;;;;5001957;28;20535;-86
2023/09/19 05:37:58;;;;;;;2.22;1.00;;;17.40;1.00;;;;;;4997256;28;20398;-86
2023/09/19 05:40:24;;;;;;;1.20;0.80;;;17.50;1.00;;;;;;4995605;28;20390;-88
2023/09/19 05:42:52;;;;;;;1.10;0.90;;;17.50;1.00;;;;;;4996289;28;20390;-87
2023/09/19 05:45:24;;;;;;;1.33;1.00;;;16.40;1.00;;;;;;4994752;28;20406;-86
2023/09/19 05:47:51;;;;;;;1.45;0.90;;;16.70;1.00;;;;;;4997549;28;20387;-87
2023/09/19 05:50:16;;;;;;;1.80;1.00;;;17.50;1.00;;;;;;4993235;28;20386;-88
2023/09/19 05:52:45;;;;;;;1.80;1.13;;;17.50;1.00;;;;;;4991823;28;20414;-87
2023/09/19 05:55:11;;;;;;;3.35;0.90;;;16.70;1.00;;;;;;4991382;28;20421;-84
2023/09/19 05:57:42;;;;;;;1.83;1.17;;;17.10;1.00;;;;;;4973116;28;20771;-86
2023/09/19 06:00:11;;;;;;;1.90;1.00;;;17.80;1.00;;;;;;4973889;28;20402;-87
2023/09/19 06:02:37;;;;;;;2.20;1.00;;;17.60;1.00;;;;;;4990167;28;20435;-87
2023/09/19 06:05:06;;;;;;;4.50;1.10;;;17.50;1.00;;;;;;4992888;28;20402;-86
2023/09/19 06:07:36;;;;;;;1.95;1.40;;;17.40;1.00;;;;;;4996487;28;20411;-86
2023/09/19 06:10:05;;;;;;;1.90;1.30;;;17.60;1.00;;;;;;4997812;28;20387;-86
2023/09/19 06:12:33;;;;;;;2.53;1.10;;;17.60;1.00;;;;;;4995903;28;20438;-86
2023/09/19 06:14:59;;;;;;;0.80;0.80;;;17.60;1.00;;;;;;4995483;28;20433;-87
2023/09/19 06:17:26;;;;;;;2.60;0.90;;;17.50;1.00;;;;;;4990743;28;20390;-86
2023/09/19 06:19:52;;;;;;;2.25;0.98;;;17.60;1.00;;;;;;4997459;28;20400;-86
2023/09/19 06:22:18;;;;;;;2.57;1.00;;;17.60;1.00;;;;;;4995487;28;20401;-86
2023/09/19 06:24:44;;;;;;;1.63;0.90;;;17.60;1.00;;;;;;4990775;28;20521;-85
2023/09/19 06:27:10;;;;;;;2.00;1.20;;;18.30;1.00;;;;;;4993126;28;20433;-84
2023/09/19 06:29:37;;;;;;;1.07;0.97;;;17.50;1.00;;;;;;4993822;28;20477;-86
2023/09/19 06:32:08;;;;;;;1.50;1.40;;;17.60;1.00;;;;;;4992414;28;20922;-85
2023/09/19 06:34:34;;;;;;;2.67;1.10;;;17.50;1.00;;;;;;4992712;28;20394;-87
2023/09/19 06:36:59;;;;;;;1.90;1.30;;;17.50;1.00;;;;;;4993978;28;20397;-86
2023/09/19 06:39:25;;;;;;;1.60;0.90;;;17.60;1.00;;;;;;4992700;28;20432;-87
2023/09/19 06:41:53;;;;;;;1.80;1.10;;;17.60;1.00;;;;;;4992927;28;20456;-86
2023/09/19 06:44:21;;;;;;;1.98;1.40;;;17.60;1.00;;;;;;4993897;28;20758;-87
2023/09/19 06:46:51;;;;;;;2.43;1.20;;;17.60;1.00;;;;;;4992421;28;20997;-86
2023/09/19 06:49:17;;;;;;;2.00;1.10;;;17.60;1.00;;;;;;4993803;28;20394;-85
2023/09/19 06:51:43;;;;;;;1.50;0.82;;;18.10;1.00;;;;;;4993183;28;20417;-84
2023/09/19 06:54:12;;;;;;;1.50;1.10;;;18.10;1.00;;;;;;4992263;28;20767;-86
2023/09/19 06:56:37;;;;;;;2.30;1.40;;;17.70;1.00;;;;;;4992526;28;20393;-86
2023/09/19 06:59:05;;;;;;;1.13;1.00;;;17.70;1.00;;;;;;4991156;28;20403;-85
2023/09/19 07:01:31;;;;;;;2.10;0.90;;;17.70;1.00;;;;;;4992672;28;20406;-86
2023/09/19 07:03:57;;;;;;;1.63;1.00;;;17.60;1.00;;;;;;4995436;28;20410;-85
2023/09/19 07:06:24;;;;;;;2.30;1.23;;;17.00;1.00;;;;;;4991426;28;20389;-86
2023/09/19 07:08:50;;;;;;;2.20;1.10;;;17.50;1.00;;;;;;4992823;28;20414;-86
2023/09/19 07:11:15;;;;;;;1.80;1.00;;;17.80;1.00;;;;;;4993103;28;20397;-87
2023/09/19 07:13:41;;;;;;;1.80;1.00;;;17.20;1.00;;;;;;4984043;28;20382;-85
2023/09/19 07:16:08;;;;;;;1.80;1.00;;;17.90;1.00;;;;;;5009143;28;20394;-85
2023/09/19 07:18:34;;;;;;;2.00;1.23;;;17.90;1.00;;;;;;4999241;28;20818;-86
2023/09/19 07:21:04;;;;;;;2.83;0.97;;;18.00;1.00;;;;;;4998347;28;20403;-87
2023/09/19 07:23:34;;;;;;;1.20;1.00;;;17.40;1.00;;;;;;4989902;28;20925;-86
2023/09/19 07:26:05;;;;;;;1.55;1.00;;;18.20;1.00;;;;;;4986568;28;20402;-86
2023/09/19 07:28:30;;;;;;;2.20;1.40;;;18.10;1.00;;;;;;4992130;28;20398;-86
2023/09/19 07:30:56;;;;;;;1.55;1.00;;;17.90;1.00;;;;;;4992557;28;20406;-86
2023/09/19 07:33:22;;;;;;;1.55;1.20;;;18.00;1.00;;;;;;4991977;28;20402;-86
2023/09/19 07:35:47;;;;;;;1.80;1.10;;;18.00;1.00;;;;;;4993146;28;20383;-86
2023/09/19 07:38:13;;;;;;;1.77;1.13;;;17.90;1.00;;;;;;4993456;28;20394;-86
2023/09/19 07:40:39;;;;;;;2.13;1.10;;;18.10;1.00;;;;;;4991292;28;20393;-86
2023/09/19 07:43:06;;;;;;;3.42;1.20;;;18.10;1.00;;;;;;4993226;28;20393;-86
2023/09/19 07:45:32;;;;;;;1.17;1.00;;;18.20;1.00;;;;;;4991697;28;20489;-87
2023/09/19 07:48:00;;;;;;;2.40;1.20;;;17.80;1.00;;;;;;4991493;28;21004;-86
2023/09/19 07:50:26;;;;;;;2.03;1.30;;;18.70;1.00;;;;;;4992472;28;20452;-86
2023/09/19 07:52:53;;;;;;;2.40;0.90;;;18.00;1.00;;;;;;4992254;28;20978;-86
2023/09/19 07:55:19;;;;;;;2.35;1.08;;;18.00;1.00;;;;;;4991835;28;20922;-86
2023/09/19 07:57:46;;;;;;;1.67;1.00;;;18.00;1.00;;;;;;4991422;28;20482;-85
2023/09/19 08:00:12;;;;;;;1.92;1.20;;;18.00;1.00;;;;;;4992711;28;20464;-87
2023/09/19 08:02:39;;;;;;;2.33;1.27;;;18.10;1.00;;;;;;4990921;28;20405;-87
2023/09/19 08:05:11;;;;;;;1.50;1.20;;;18.10;1.00;;;;;;4992914;28;20400;-86
2023/09/19 08:07:37;;;;;;;1.30;0.85;;;18.20;1.00;;;;;;4991995;28;20460;-86
2023/09/19 08:10:08;;;;;;;2.25;1.00;;;18.70;1.00;;;;;;4992927;28;20393;-86
2023/09/19 08:12:35;;;;;;;3.28;1.10;;;18.20;1.00;;;;;;4991148;28;20790;-87
2023/09/19 08:15:03;;;;;;;2.22;1.10;;;18.10;1.00;;;;;;4991306;28;20390;-86
2023/09/19 08:17:28;;;;;;;1.10;1.00;;;18.10;1.00;;;;;;4992327;28;20398;-86
2023/09/19 08:19:54;;;;;;;2.17;1.10;;;18.00;1.00;;;;;;4995262;28;20397;-87
2023/09/19 08:22:21;;;;;;;2.07;1.00;;;18.50;1.00;;;;;;4999168;28;20453;-86
2023/09/19 08:24:48;;;;;;;2.38;1.10;;;18.00;1.00;;;;;;4991388;28;20403;-87
2023/09/19 08:27:13;;;;;;;1.20;1.10;;;18.00;1.00;;;;;;4992474;28;20401;-87
2023/09/19 08:29:39;;;;;;;2.17;1.10;;;18.40;1.00;;;;;;4991098;28;20389;-86
2023/09/19 08:32:05;;;;;;;2.30;0.97;;;18.20;1.00;;;;;;4990569;28;20415;-86
2023/09/19 08:34:33;;;;;;;1.40;0.80;;;18.70;1.00;;;;;;4990822;28;20398;-87
2023/09/19 08:36:59;;;;;;;1.48;0.90;;;17.40;1.00;;;;;;4992428;28;20469;-86
2023/09/19 08:39:25;;;;;;;2.80;1.30;;;18.30;1.00;;;;;;4992415;28;20446;-87
2023/09/19 08:41:59;;;;;;;2.63;1.50;;;17.90;1.00;;;;;;4992263;28;20413;-87
2023/09/19 08:44:24;;;;;;;1.60;1.00;;;17.50;1.00;;;;;;4990895;28;20400;-86
2023/09/19 08:46:54;;;;;;;2.42;1.20;;;18.20;1.00;;;;;;4991527;28;20886;-86
2023/09/19 08:49:31;;;;;;;2.65;1.10;;;18.50;1.00;;;;;;5009889;28;20402;-86
2023/09/19 08:52:19;;;;;;;2.28;1.10;;;18.00;1.00;;;;;;5013914;28;20489;-86
2023/09/19 08:54:48;;;;;;;1.17;1.05;;;18.70;1.00;;;;;;5015089;28;20386;-84
2023/09/19 08:57:21;;;;;;;1.40;1.02;;;18.80;1.00;;;;;;5003706;28;20488;-86
2023/09/19 08:59:50;;;;;;;1.90;1.20;;;17.90;1.00;;;;;;4991287;28;20894;-87
2023/09/19 09:02:19;;;;;;;2.38;0.90;;;18.70;1.00;;;;;;4991664;28;20406;-86
2023/09/19 09:04:45;;;;;;;2.10;1.20;;;18.90;1.00;;;;;;4991194;28;20438;-86
2023/09/19 09:07:14;;;;;;;1.40;1.10;;;20.10;1.00;;;;;;4990780;28;20397;-87
2023/09/19 09:09:43;;;;;;;1.30;1.10;;;18.20;1.00;;;;;;4990670;28;20393;-87
2023/09/19 09:12:12;;;;;;;1.67;1.30;;;19.10;1.00;;;;;;4990529;28;20414;-87
2023/09/19 09:14:38;;;;;;;2.03;1.25;;;19.30;1.00;;;;;;4990585;28;20407;-86
2023/09/19 09:17:03;;;;;;;3.60;1.70;;;19.90;1.00;;;;;;4992459;28;20936;-87
2023/09/19 09:19:31;;;;;;;2.63;1.40;;;19.50;1.00;;;;;;4992872;28;20383;-87
2023/09/19 09:22:09;;;;;;;2.50;1.30;;;19.40;1.00;;;;;;5010315;28;20477;-87
2023/09/19 09:24:37;;;;;;;2.80;1.10;;;19.40;1.00;;;;;;4991445;28;20403;-87
2023/09/19 09:27:05;;;;;;;3.90;1.33;;;19.50;1.00;;;;;;4990488;28;20398;-87
2023/09/19 09:29:55;;;;;;;2.20;1.20;;;19.40;1.00;;;;;;4990372;28;20416;-87
2023/09/19 09:32:23;;;;;;;2.50;1.38;;;19.40;1.00;;;;;;4990333;28;20468;-87
2023/09/19 09:34:54;;;;;;;2.83;1.30;;;19.40;1.00;;;;;;4990284;28;20422;-87
2023/09/19 09:37:21;;;;;;;2.08;1.25;;;19.40;1.00;;;;;;4990049;28;20393;-87
2023/09/19 09:42:41;;;;;;;3.40;1.48;;;19.30;1.00;;;;;;4996461;28;20401;-87
2023/09/19 09:48:03;;;;;;;1.40;1.00;;;19.20;1.00;;;;;;4981996;28;20409;-86
2023/09/19 09:50:44;;;;;;;2.50;1.20;;;19.40;1.00;;;;;;4994934;28;20394;-86
2023/09/19 09:53:32;;;;;;;2.50;1.20;;;19.50;1.00;;;;;;4993773;28;20414;-86
2023/09/19 09:56:08;;;;;;;1.73;1.10;;;20.20;1.00;;;;;;4994407;28;20390;-87
2023/09/19 09:58:49;;;;;;;2.35;1.13;;;19.70;1.00;;;;;;4994022;28;20402;-86
2023/09/19 10:01:15;;;;;;;3.10;1.20;;;20.80;1.00;;;;;;4995400;28;20477;-88
2023/09/19 10:03:47;;;;;;;1.67;1.25;;;19.90;1.00;;;;;;4993514;28;20809;-86
2023/09/19 10:06:35;;;;;;;3.40;1.40;;;19.60;1.00;;;;;;4993693;28;20453;-86
2023/09/19 10:09:20;;;;;;;3.72;0.90;;;19.80;1.00;;;;;;5009313;28;20407;-88
2023/09/19 10:12:02;;;;;;;2.45;1.20;;;20.00;1.00;;;;;;4994970;28;20410;-86
2023/09/19 10:14:33;;;;;;;1.30;1.20;;;20.00;1.00;;;;;;4997677;28;20386;-86
2023/09/19 10:17:04;;;;;;;2.00;1.35;;;19.20;1.00;;;;;;4994158;28;20413;-86
2023/09/19 10:19:36;;;;;;;2.70;1.20;;;21.10;1.00;;;;;;4992726;28;20392;-86
2023/09/19 10:22:04;;;;;;;1.63;1.10;;;20.20;1.00;;;;;;5013501;28;20397;-86
2023/09/19 10:24:31;;;;;;;4.82;1.20;;;20.20;1.00;;;;;;5014092;28;20421;-87
2023/09/19 10:26:57;;;;;;;2.50;1.27;;;20.60;1.00;;;;;;5004609;28;20391;-87
2023/09/19 10:29:28;;;;;;;2.67;0.90;;;19.50;1.00;;;;;;4993798;28;20406;-87
2023/09/19 10:31:58;;;;;;;1.70;1.30;;;20.40;1.00;;;;;;4993386;28;20421;-87
2023/09/19 10:34:25;;;;;;;1.70;1.40;;;20.60;1.00;;;;;;4993433;28;20403;-87
2023/09/19 10:36:52;;;;;;;2.47;1.30;;;20.60;1.00;;;;;;4994725;28;20395;-87
2023/09/19 10:39:19;;;;;;;1.50;0.90;;;20.20;1.00;;;;;;4995014;28;20522;-88
2023/09/19 10:41:53;;;;;;;1.77;1.27;;;20.70;1.00;;;;;;4993260;28;20409;-87
2023/09/19 10:44:25;;;;;;;2.60;1.10;;;20.50;1.00;;;;;;4993985;28;20391;-87
2023/09/19 10:46:53;;;;;;;1.80;1.10;;;21.50;1.00;;;;;;4994237;28;20453;-87
2023/09/19 10:49:24;;;;;;;2.22;1.00;;;21.50;1.00;;;;;;4993632;28;20399;-87
2023/09/19 10:51:56;;;;;;;2.10;1.20;;;21.10;1.00;;;;;;4991495;28;20497;-87
2023/09/19 10:54:26;;;;;;;4.05;1.23;;;20.30;1.00;;;;;;4994295;28;20398;-88
2023/09/19 10:56:53;;;;;;;1.80;1.17;;;21.50;1.00;;;;;;4994205;28;20386;-88
2023/09/19 10:59:21;;;;;;;2.63;1.38;;;20.80;1.00;;;;;;4995499;28;20449;-87
2023/09/19 11:01:58;;;;;;;2.28;1.00;;;21.30;1.00;;;;;;4994776;28;20382;-87
2023/09/19 11:04:35;;;;;;;1.73;1.30;;;21.40;1.00;;;;;;4996074;28;20402;-88
2023/09/19 11:07:14;;;;;;;2.30;1.10;;;21.50;1.00;;;;;;4994691;28;20489;-89
2023/09/19 11:09:48;;;;;;;1.45;1.17;;;21.50;1.00;;;;;;4993049;28;20402;-89
2023/09/19 11:12:30;;;;;;;1.80;1.00;;;21.70;1.00;;;;;;4992388;28;20413;-89
2023/09/19 11:14:56;;;;;;;2.13;1.10;;;22.90;1.00;;;;;;4992109;28;20406;-88
2023/09/19 11:17:40;;;;;;;1.90;1.37;;;22.70;1.00;;;;;;4992874;28;20393;-90
2023/09/19 11:20:15;;;;;;;1.45;1.30;;;22.30;1.00;;;;;;5000568;28;20768;-89
2023/09/19 11:22:50;;;;;;;6.45;1.55;;;22.80;1.00;;;;;;5016702;28;20425;-88
2023/09/19 11:25:34;;;;;;;2.22;1.30;;;22.80;1.00;;;;;;4999337;28;20426;-89
2023/09/19 11:28:05;;;;;;;1.98;1.63;;;22.60;1.00;;;;;;4998944;28;20418;-89
2023/09/19 11:30:53;;;;;;;2.83;1.13;;;22.60;1.00;;;;;;4991708;28;20490;-89
2023/09/19 11:33:38;;;;;;;3.80;1.35;;;22.30;1.00;;;;;;4991888;28;20417;-89
2023/09/19 11:36:07;;;;;;;5.10;1.30;;;22.40;1.00;;;;;;4988713;28;20441;-91
2023/09/19 11:38:45;;;;;;;3.40;1.50;;;23.20;1.00;;;;;;4991131;28;20422;-90
2023/09/19 11:41:20;;;;;;;2.60;1.30;;;24.60;1.00;;;;;;4991338;28;20403;-86
2023/09/19 11:43:55;;;;;;;3.75;1.27;;;25.20;1.00;;;;;;4995240;28;20791;-91
2023/09/19 11:46:29;;;;;;;1.67;1.13;;;24.60;1.00;;;;;;4993959;28;20395;-90
2023/09/19 11:49:20;;;;;;;2.33;1.20;;;26.00;1.00;;;;;;4986182;28;20394;-90
2023/09/19 11:51:51;;;;;;;1.92;1.00;;;25.10;1.00;;;;;;4993351;28;20437;-89
2023/09/19 11:54:21;;;;;;;1.20;1.10;;;24.60;1.00;;;;;;4984592;28;20408;-88
2023/09/19 11:56:57;;;;;;;1.48;1.00;;;24.80;1.00;;;;;;4982139;28;20400;-89
2023/09/19 11:59:36;;;;;;;2.35;1.20;;;25.50;1.00;;;;;;4984692;28;20406;-89
2023/09/19 12:02:11;;;;;;;2.78;1.40;;;24.60;1.00;;;;;;4991393;28;20382;-88
2023/09/19 12:04:43;;;;;;;1.40;1.30;;;25.30;1.00;;;;;;4992724;28;20402;-89
2023/09/19 12:16:41;;;;;;;;;;;;;;;;;;;;;
2023/09/19 12:19:44;;;;;;;1.85;1.30;;;25.10;1.00;;;;;;4991845;28;20467;-87
2023/09/19 12:22:17;;;;;;;1.75;1.40;;;24.60;1.00;;;;;;4968752;28;20398;-85
2023/09/19 12:24:50;;;;;;;1.75;1.20;;;26.10;1.00;;;;;;4994455;28;20517;-86
2023/09/19 12:27:42;;;;;;;2.22;1.27;;;24.50;1.00;;;;;;4994853;28;20445;-86
2023/09/19 12:30:16;;;;;;;2.00;1.30;;;24.40;1.00;;;;;;4995004;28;20886;-86
2023/09/19 12:32:47;;;;;;;2.00;1.20;;;25.20;1.00;;;;;;4996079;28;20434;-88
2023/09/19 12:35:28;;;;;;;1.40;1.13;;;24.40;1.00;;;;;;5006005;28;20423;-87
2023/09/19 12:37:55;;;;;;;1.08;0.90;;;25.40;1.00;;;;;;5001556;28;20489;-89
2023/09/19 12:41:11;;;;;;;1.30;1.10;;;25.20;1.00;;;;;;5011418;28;20389;-88
2023/09/19 12:44:00;;;;;;;3.33;1.10;;;24.70;1.00;;;;;;4982277;28;20417;-91
2023/09/19 12:46:26;;;;;;;2.10;1.17;;;24.20;1.00;;;;;;5000663;28;20877;-91
2023/09/19 12:49:20;;;;;;;1.83;1.03;;;24.20;1.00;;;;;;5004977;28;20399;-89
2023/09/19 12:52:04;;;;;;;4.32;1.30;;;22.10;1.00;;;;;;5001745;28;20779;-90
2023/09/19 12:55:02;;;;;;;1.55;1.13;;;23.00;1.00;;;;;;4998968;28;20418;-87
2023/09/19 12:57:54;;;;;;;1.60;1.10;;;23.70;1.00;;;;;;5015974;28;20393;-88
2023/09/19 13:00:40;;;;;;;1.83;1.23;;;23.90;1.00;;;;;;5004297;28;20396;-87
2023/09/19 13:03:41;;;;;;;2.50;1.20;;;24.60;1.00;;;;;;5003566;28;20417;-87
2023/09/19 13:06:09;;;;;;;1.80;0.90;;;24.20;1.00;;;;;;4990143;28;20401;-89
2023/09/19 13:08:49;;;;;;;1.30;0.90;;;23.50;1.00;;;;;;5001381;28;20424;-87
2023/09/19 13:11:21;;;;;;;1.30;1.00;;;24.60;1.00;;;;;;5001325;28;20402;-88
2023/09/19 13:13:54;;;;;;;3.00;1.27;;;25.70;1.00;;;;;;5002552;28;20410;-88
2023/09/19 13:20:11;;;;;;;2.55;0.90;;;24.20;1.00;;;;;;5008864;28;20815;-90
2023/09/19 13:22:39;;;;;;;2.20;1.00;;;24.40;1.00;;;;;;5003828;28;20398;-88
2023/09/19 13:25:29;;;;;;;1.70;1.20;;;25.70;1.00;;;;;;4999136;28;20399;-86
2023/09/19 13:28:02;;;;;;;1.40;1.17;;;26.20;1.00;;;;;;4989160;28;20493;-88
2023/09/19 13:30:44;;;;;;;1.15;0.98;;;25.60;1.00;;;;;;5000152;28;20797;-87
2023/09/19 13:33:28;;;;;;;1.80;1.00;;;24.30;1.00;;;;;;4997424;28;20410;-86
2023/09/19 13:36:22;;;;;;;1.48;1.00;;;24.00;1.00;;;;;;5003032;28;20390;-88
2023/09/19 13:38:49;;;;;;;1.30;0.80;;;22.90;1.00;;;;;;4994230;28;20398;-87
2023/09/19 13:41:21;;;;;;;0.93;0.90;;;25.90;1.00;;;;;;4996815;28;20383;-87
2023/09/19 13:47:02;;;;;;;1.40;1.25;;;24.20;1.00;;;;;;4958811;29;20413;-89
2023/09/19 13:49:44;;;;;;;1.90;0.85;;;24.40;1.00;;;;;;4995346;28;20403;-88
2023/09/19 13:52:24;;;;;;;1.80;0.90;;;24.30;1.00;;;;;;5044515;23;20454;-88
2023/09/19 13:55:06;;;;;;;1.10;0.80;;;25.40;1.00;;;;;;5052363;28;20385;-87
2023/09/19 13:57:54;;;;;;;1.30;0.80;;;26.40;1.00;;;;;;5032701;28;20398;-88
2023/09/19 14:01:30;;;;;;;1.45;0.90;;;24.50;1.00;;;;;;5030317;28;20464;-87
2023/09/19 14:03:58;;;;;;;2.67;1.10;;;24.70;1.00;;;;;;4999221;28;20403;-88
2023/09/19 14:07:41;;;;;;;2.35;1.20;;;24.90;1.00;;;;;;5013554;28;20393;-87
2023/09/19 14:09:57;;;;;;;4.60;1.20;;;24.80;1.00;;;;;;4967402;28;20384;-86
2023/09/19 14:16:24;;;;;;;;;;;;;;;;;;;;;
2023/09/19 14:19:36;;;;;;;1.20;1.00;;;24.10;1.00;;;;;;5015801;28;20842;-86
2023/09/19 14:29:35;;;;;;;2.17;1.15;;;24.80;1.00;;;;;;5004406;28;20499;-86
2023/09/19 14:32:33;;;;;;;1.20;0.80;;;26.10;1.00;;;;;;4992949;28;20442;-86
2023/09/19 14:36:08;;;;;;;1.70;0.90;;;24.90;1.00;;;;;;5020273;28;20387;-85
2023/09/19 14:44:57;;;;;;;2.50;1.05;;;24.60;1.00;;;;;;5037355;22;20438;-86
2023/09/19 14:47:23;;;;;;;1.73;0.88;;;24.50;1.00;;;;;;5011615;28;20386;-86
2023/09/19 14:49:49;;;;;;;1.23;1.07;;;24.40;1.00;;;;;;5020284;28;20394;-84
2023/09/19 14:52:15;;;;;;;1.60;1.10;;;24.40;1.00;;;;;;5011824;28;20435;-85